Time,TemperatureF,DewpointF,PressureIn,WindDirection,WindDirectionDegrees,WindSpeedMPH,WindSpeedGustMPH,Humidity,HourlyPrecipIn,Conditions,Clouds,dailyrainin,SoftwareType,DateUTC
2013-05-04 00:01:00,41.9,30.0,30.02,WSW,248,5.0,5.0,62,0.00,,,0.00,weatherlink.com 1.10,2013-05-04 06:01:00,
2013-05-04 00:16:00,42.7,29.0,30.02,WSW,252,1.0,3.0,59,0.00,,,0.00,weatherlink.com 1.10,2013-05-04 06:16:00,
2013-05-04 00:31:00,44.9,29.0,30.02,SSW,211,0.0,7.0,55,0.00,,,0.00,weatherlink.com 1.10,2013-05-04 06:31:00,
2013-05-04 00:46:00,45.2,30.0,30.02,ESE,103,3.0,6.0,55,0.00,,,0.00,weatherlink.com 1.10,2013-05-04 06:46:00,
2013-05-04 01:01:00,44.8,29.0,30.02,West,264,2.0,5.0,55,0.00,,,0.00,weatherlink.com 1.10,2013-05-04 07:01:00,
2013-05-04 01:16:00,44.2,29.0,30.02,NE,36,2.0,3.0,56,0.00,,,0.00,weatherlink.com 1.10,2013-05-04 07:16:00,
2013-05-04 01:32:00,42.4,30.0,30.02,West,264,1.0,4.0,61,0.00,,,0.00,weatherlink.com 1.10,2013-05-04 07:32:00,
2013-05-04 01:46:00,40.4,30.0,30.01,West,262,3.0,6.0,66,0.00,,,0.00,weatherlink.com 1.10,2013-05-04 07:46:00,
2013-05-04 02:01:00,41.5,30.0,30.01,West,280,1.0,5.0,64,0.00,,,0.00,weatherlink.com 1.10,2013-05-04 08:01:00,
2013-05-04 02:16:00,42.4,30.0,30.01,WSW,252,0.0,4.0,62,0.00,,,0.00,weatherlink.com 1.10,2013-05-04 08:16:00,
2013-05-04 02:31:00,42.2,30.0,30.01,NW,314,2.0,4.0,62,0.00,,,0.00,weatherlink.com 1.10,2013-05-04 08:31:00,
2013-05-04 02:46:00,42.3,30.0,30.00,WSW,250,2.0,6.0,62,0.00,,,0.00,weatherlink.com 1.10,2013-05-04 08:46:00,
2013-05-04 03:03:00,41.6,30.0,30.00,ESE,122,0.0,2.0,64,0.00,,,0.00,weatherlink.com 1.10,2013-05-04 09:03:00,
2013-05-04 03:16:00,41.1,30.0,30.00,ENE,74,1.0,5.0,65,0.00,,,0.00,weatherlink.com 1.10,2013-05-04 09:16:00,
2013-05-04 03:31:00,39.4,30.0,30.00,WSW,242,0.0,2.0,68,0.00,,,0.00,weatherlink.com 1.10,2013-05-04 09:31:00,
2013-05-04 03:46:00,39.4,30.0,29.99,WSW,243,0.0,2.0,69,0.00,,,0.00,weatherlink.com 1.10,2013-05-04 09:46:00,
2013-05-04 04:01:00,40.9,30.0,29.99,WNW,288,1.0,4.0,66,0.00,,,0.00,weatherlink.com 1.10,2013-05-04 10:01:00,
2013-05-04 04:17:00,39.8,30.0,29.98,ESE,102,0.0,3.0,67,0.00,,,0.00,weatherlink.com 1.10,2013-05-04 10:17:00,
2013-05-04 04:32:00,38.5,29.0,29.99,East,79,1.0,2.0,70,0.00,,,0.00,weatherlink.com 1.10,2013-05-04 10:32:00,
2013-05-04 04:47:00,37.8,30.0,29.98,NE,41,0.0,1.0,72,0.00,,,0.00,weatherlink.com 1.10,2013-05-04 10:47:00,
2013-05-04 05:02:00,38.4,29.0,29.98,West,260,0.0,3.0,70,0.00,,,0.00,weatherlink.com 1.10,2013-05-04 11:02:00,
2013-05-04 05:17:00,39.2,29.0,29.97,SE,126,1.0,3.0,68,0.00,,,0.00,weatherlink.com 1.10,2013-05-04 11:17:00,
2013-05-04 05:32:00,40.0,30.0,29.97,SE,141,1.0,6.0,67,0.00,,,0.00,weatherlink.com 1.10,2013-05-04 11:32:00,
2013-05-04 05:47:00,41.9,30.0,29.95,NE,43,3.0,8.0,62,0.00,,,0.00,weatherlink.com 1.10,2013-05-04 11:47:00,
2013-05-04 06:02:00,43.3,30.0,29.95,ENE,75,3.0,8.0,59,0.00,,,0.00,weatherlink.com 1.10,2013-05-04 12:02:00,
2013-05-04 06:17:00,43.3,30.0,29.96,WSW,242,0.0,7.0,59,0.00,,,0.00,weatherlink.com 1.10,2013-05-04 12:17:00,
2013-05-04 06:32:00,43.8,29.0,29.96,East,94,4.0,10.0,57,0.00,,,0.00,weatherlink.com 1.10,2013-05-04 12:32:00,
2013-05-04 06:47:00,43.5,29.0,29.97,West,273,1.0,7.0,58,0.00,,,0.00,weatherlink.com 1.10,2013-05-04 12:47:00,
2013-05-04 07:02:00,42.8,30.0,29.97,SW,236,1.0,6.0,61,0.00,,,0.00,weatherlink.com 1.10,2013-05-04 13:02:00,
2013-05-04 07:17:00,42.7,30.0,29.97,West,260,0.0,4.0,61,0.00,,,0.00,weatherlink.com 1.10,2013-05-04 13:17:00,
2013-05-04 07:32:00,43.1,31.0,29.97,WSW,253,0.0,3.0,62,0.00,,,0.00,weatherlink.com 1.10,2013-05-04 13:32:00,
2013-05-04 07:47:00,46.6,33.0,29.97,WSW,255,1.0,1.0,59,0.00,,,0.00,weatherlink.com 1.10,2013-05-04 13:47:00,
2013-05-04 08:02:00,50.0,31.0,29.96,ESE,120,0.0,3.0,49,0.00,,,0.00,weatherlink.com 1.10,2013-05-04 14:02:00,
2013-05-04 08:17:00,50.7,30.0,29.96,ENE,70,3.0,6.0,45,0.00,,,0.00,weatherlink.com 1.10,2013-05-04 14:17:00,
2013-05-04 08:32:00,51.6,32.0,29.96,SE,125,2.0,8.0,47,0.00,,,0.00,weatherlink.com 1.10,2013-05-04 14:32:00,
2013-05-04 08:47:00,51.6,30.0,29.96,NE,53,1.0,9.0,44,0.00,,,0.00,weatherlink.com 1.10,2013-05-04 14:47:00,
2013-05-04 09:02:00,50.2,29.0,29.96,WNW,290,3.0,6.0,45,0.00,,,0.00,weatherlink.com 1.10,2013-05-04 15:02:00,
2013-05-04 09:17:00,50.0,30.0,29.96,SE,131,2.0,7.0,46,0.00,,,0.00,weatherlink.com 1.10,2013-05-04 15:17:00,
2013-05-04 09:32:00,50.0,29.0,29.96,SE,139,3.0,5.0,45,0.00,,,0.00,weatherlink.com 1.10,2013-05-04 15:32:00,
2013-05-04 09:47:00,50.1,30.0,29.95,East,90,2.0,7.0,47,0.00,,,0.00,weatherlink.com 1.10,2013-05-04 15:47:00,
2013-05-04 10:02:00,50.9,28.0,29.95,NE,52,1.0,8.0,42,0.00,,,0.00,weatherlink.com 1.10,2013-05-04 16:02:00,
2013-05-04 10:17:00,52.3,30.0,29.95,ENE,58,4.0,8.0,42,0.00,,,0.00,weatherlink.com 1.10,2013-05-04 16:17:00,
2013-05-04 10:32:00,53.7,30.0,29.95,East,93,5.0,9.0,41,0.00,,,0.00,weatherlink.com 1.10,2013-05-04 16:32:00,
2013-05-04 10:48:00,53.3,29.0,29.94,East,89,7.0,13.0,40,0.00,,,0.00,weatherlink.com 1.10,2013-05-04 16:48:00,
2013-05-04 11:03:00,54.4,30.0,29.94,ESE,111,12.0,13.0,39,0.00,,,0.00,weatherlink.com 1.10,2013-05-04 17:03:00,
2013-05-04 11:18:00,53.9,29.0,29.94,East,82,9.0,14.0,39,0.00,,,0.00,weatherlink.com 1.10,2013-05-04 17:18:00,
2013-05-04 11:33:00,53.2,29.0,29.94,ESE,118,11.0,15.0,39,0.00,,,0.00,weatherlink.com 1.10,2013-05-04 17:33:00,
2013-05-04 11:48:00,53.5,30.0,29.94,East,79,4.0,12.0,41,0.00,,,0.00,weatherlink.com 1.10,2013-05-04 17:48:00,
2013-05-04 12:03:00,53.2,29.0,29.94,ENE,75,11.0,12.0,39,0.00,,,0.00,weatherlink.com 1.10,2013-05-04 18:03:00,
2013-05-04 12:18:00,56.2,31.0,29.93,ENE,75,10.0,10.0,38,0.00,,,0.00,weatherlink.com 1.10,2013-05-04 18:18:00,
2013-05-04 12:33:00,55.4,28.0,29.93,ENE,70,6.0,15.0,35,0.00,,,0.00,weatherlink.com 1.10,2013-05-04 18:33:00,
2013-05-04 12:48:00,54.9,30.0,29.93,East,82,11.0,14.0,38,0.00,,,0.00,weatherlink.com 1.10,2013-05-04 18:48:00,
2013-05-04 13:03:00,57.0,29.0,29.93,East,82,6.0,11.0,35,0.00,,,0.00,weatherlink.com 1.10,2013-05-04 19:03:00,
2013-05-04 13:18:00,58.9,32.0,29.92,NE,47,2.0,13.0,37,0.00,,,0.00,weatherlink.com 1.10,2013-05-04 19:18:00,
2013-05-04 13:33:00,58.2,29.0,29.91,East,97,8.0,14.0,33,0.00,,,0.00,weatherlink.com 1.10,2013-05-04 19:33:00,
2013-05-04 13:48:00,57.2,29.0,29.91,East,100,9.0,16.0,34,0.00,,,0.00,weatherlink.com 1.10,2013-05-04 19:48:00,
2013-05-04 14:03:00,58.1,28.0,29.91,ESE,115,3.0,10.0,32,0.00,,,0.00,weatherlink.com 1.10,2013-05-04 20:03:00,
2013-05-04 14:18:00,58.4,29.0,29.91,East,92,11.0,16.0,33,0.00,,,0.00,weatherlink.com 1.10,2013-05-04 20:18:00,
2013-05-04 14:33:00,57.0,28.0,29.90,NE,39,0.0,7.0,33,0.00,,,0.00,weatherlink.com 1.10,2013-05-04 20:33:00,
2013-05-04 14:48:00,57.3,30.0,29.90,ESE,106,9.0,16.0,35,0.00,,,0.00,weatherlink.com 1.10,2013-05-04 20:48:00,
2013-05-04 15:03:00,55.8,28.0,29.89,East,80,10.0,13.0,35,0.00,,,0.00,weatherlink.com 1.10,2013-05-04 21:03:00,
2013-05-04 15:18:00,59.1,30.0,29.89,ESE,107,10.0,14.0,33,0.00,,,0.00,weatherlink.com 1.10,2013-05-04 21:18:00,
2013-05-04 15:33:00,58.8,29.0,29.89,ENE,77,7.0,10.0,32,0.00,,,0.00,weatherlink.com 1.10,2013-05-04 21:33:00,
2013-05-04 15:48:00,59.6,30.0,29.89,NNE,18,3.0,10.0,33,0.00,,,0.00,weatherlink.com 1.10,2013-05-04 21:48:00,
2013-05-04 16:03:00,59.0,30.0,29.89,NE,56,6.0,10.0,33,0.00,,,0.00,weatherlink.com 1.10,2013-05-04 22:03:00,
2013-05-04 16:18:00,55.9,28.0,29.89,East,98,9.0,15.0,34,0.00,,,0.00,weatherlink.com 1.10,2013-05-04 22:18:00,
2013-05-04 16:33:00,56.9,27.0,29.88,East,81,3.0,11.0,32,0.00,,,0.00,weatherlink.com 1.10,2013-05-04 22:33:00,
2013-05-04 16:48:00,57.1,29.0,29.87,ESE,107,9.0,18.0,34,0.00,,,0.00,weatherlink.com 1.10,2013-05-04 22:48:00,
2013-05-04 17:03:00,56.9,28.0,29.88,East,98,11.0,17.0,33,0.00,,,0.00,weatherlink.com 1.10,2013-05-04 23:03:00,
2013-05-04 17:18:00,57.2,28.0,29.87,East,90,6.0,11.0,33,0.00,,,0.00,weatherlink.com 1.10,2013-05-04 23:18:00,
2013-05-04 17:33:00,57.5,30.0,29.87,East,94,10.0,17.0,35,0.00,,,0.00,weatherlink.com 1.10,2013-05-04 23:33:00,
2013-05-04 17:48:00,55.3,28.0,29.87,East,83,8.0,10.0,35,0.00,,,0.00,weatherlink.com 1.10,2013-05-04 23:48:00,
2013-05-04 18:03:00,56.7,28.0,29.87,East,92,3.0,11.0,33,0.00,,,0.00,weatherlink.com 1.10,2013-05-05 00:03:00,
2013-05-04 18:18:00,55.8,29.0,29.87,East,83,10.0,12.0,36,0.00,,,0.00,weatherlink.com 1.10,2013-05-05 00:18:00,
2013-05-04 18:33:00,56.7,28.0,29.87,SE,128,6.0,10.0,33,0.00,,,0.00,weatherlink.com 1.10,2013-05-05 00:33:00,
2013-05-04 18:48:00,55.2,28.0,29.87,East,81,1.0,8.0,35,0.00,,,0.00,weatherlink.com 1.10,2013-05-05 00:48:00,
2013-05-04 19:03:00,54.1,27.0,29.86,ESE,105,4.0,11.0,36,0.00,,,0.00,weatherlink.com 1.10,2013-05-05 01:03:00,
2013-05-04 19:18:00,53.9,27.0,29.86,WNW,302,3.0,10.0,36,0.00,,,0.00,weatherlink.com 1.10,2013-05-05 01:18:00,
2013-05-04 19:33:00,54.5,27.0,29.86,NNW,331,1.0,11.0,35,0.00,,,0.00,weatherlink.com 1.10,2013-05-05 01:33:00,
2013-05-04 19:48:00,54.3,27.0,29.86,East,80,7.0,12.0,35,0.00,,,0.00,weatherlink.com 1.10,2013-05-05 01:48:00,
2013-05-04 20:03:00,53.8,28.0,29.86,WNW,285,0.0,3.0,37,0.00,,,0.00,weatherlink.com 1.10,2013-05-05 02:03:00,
2013-05-04 20:18:00,52.5,28.0,29.87,ESE,118,4.0,5.0,39,0.00,,,0.00,weatherlink.com 1.10,2013-05-05 02:18:00,
2013-05-04 20:33:00,51.8,27.0,29.86,ENE,67,4.0,9.0,38,0.00,,,0.00,weatherlink.com 1.10,2013-05-05 02:33:00,
2013-05-04 20:48:00,51.2,27.0,29.87,East,92,0.0,5.0,40,0.00,,,0.00,weatherlink.com 1.10,2013-05-05 02:48:00,
2013-05-04 21:03:00,49.9,27.0,29.87,West,280,1.0,3.0,42,0.00,,,0.00,weatherlink.com 1.10,2013-05-05 03:03:00,
2013-05-04 21:18:00,49.2,27.0,29.87,WSW,250,2.0,2.0,43,0.00,,,0.00,weatherlink.com 1.10,2013-05-05 03:18:00,
2013-05-04 21:33:00,48.9,28.0,29.88,West,280,0.0,2.0,44,0.00,,,0.00,weatherlink.com 1.10,2013-05-05 03:33:00,
2013-05-04 21:48:00,48.2,28.0,29.88,East,89,1.0,2.0,45,0.00,,,0.00,weatherlink.com 1.10,2013-05-05 03:48:00,
2013-05-04 22:04:00,48.1,28.0,29.88,West,263,1.0,3.0,45,0.00,,,0.00,weatherlink.com 1.10,2013-05-05 04:04:00,
2013-05-04 22:19:00,47.5,27.0,29.88,WSW,252,0.0,2.0,46,0.00,,,0.00,weatherlink.com 1.10,2013-05-05 04:19:00,
2013-05-04 22:34:00,46.5,27.0,29.88,WSW,255,0.0,2.0,47,0.00,,,0.00,weatherlink.com 1.10,2013-05-05 04:34:00,
2013-05-04 22:49:00,47.9,28.0,29.88,WSW,255,0.0,6.0,46,0.00,,,0.00,weatherlink.com 1.10,2013-05-05 04:49:00,
2013-05-04 23:04:00,46.3,27.0,29.87,West,269,1.0,2.0,48,0.00,,,0.00,weatherlink.com 1.10,2013-05-05 05:04:00,
2013-05-04 23:19:00,46.3,27.0,29.87,West,277,0.0,3.0,48,0.00,,,0.00,weatherlink.com 1.10,2013-05-05 05:19:00,
2013-05-04 23:34:00,44.6,27.0,29.87,WSW,248,1.0,2.0,51,0.00,,,0.00,weatherlink.com 1.10,2013-05-05 05:34:00,
2013-05-04 23:49:00,41.9,27.0,29.87,WSW,250,2.0,2.0,56,0.00,,,0.00,weatherlink.com 1.10,2013-05-05 05:49:00,